createdAt,value
2018-03-14T00:00:33.722Z,35.6
2018-03-14T00:01:22.978Z,36.3
2018-03-14T00:02:13.309Z,36.6
2018-03-14T00:03:03.192Z,36.8
2018-03-14T00:03:55.447Z,36.7
2018-03-14T00:04:44.208Z,36.4
2018-03-14T00:05:34.282Z,36.2
2018-03-14T00:06:24.027Z,35.9
2018-03-14T00:07:18.055Z,35.6
2018-03-14T00:08:03.552Z,35.2
2018-03-14T00:08:54.836Z,34.9
2018-03-14T00:09:44.176Z,34.6
2018-03-14T00:10:33.535Z,34.3
2018-03-14T00:11:23.081Z,33.9
2018-03-14T00:12:13.928Z,33.6
2018-03-14T00:13:06.986Z,33.3
2018-03-14T00:13:54.644Z,33
2018-03-14T00:14:44.515Z,32.8
2018-03-14T00:15:33.708Z,32.4
2018-03-14T00:16:27.867Z,32.2
2018-03-14T00:17:14.508Z,31.9
2018-03-14T00:18:04.250Z,31.7
2018-03-14T00:18:54.320Z,31.4
2018-03-14T00:19:45.218Z,31.2
2018-03-14T00:20:35.453Z,31.1
2018-03-14T00:21:25.140Z,31.2
2018-03-14T00:22:15.921Z,32.1
2018-03-14T00:23:05.660Z,33.1
2018-03-14T00:23:55.328Z,34.1
2018-03-14T00:24:44.660Z,34.9
2018-03-14T00:25:39.164Z,35.8
2018-03-14T00:26:24.947Z,36.4
2018-03-14T00:27:16.162Z,36.7
2018-03-14T00:28:05.687Z,36.8
2018-03-14T00:28:55.257Z,36.6
2018-03-14T00:29:46.214Z,36.4
2018-03-14T00:30:36.218Z,36.1
2018-03-14T00:31:23.903Z,35.8
2018-03-14T00:32:17.075Z,35.5
2018-03-14T00:33:05.690Z,35.1
2018-03-14T00:33:56.245Z,34.8
2018-03-14T00:34:47.965Z,34.5
2018-03-14T00:35:36.487Z,34.1
2018-03-14T00:36:26.955Z,33.8
2018-03-14T00:37:14.950Z,33.5
2018-03-14T00:38:06.427Z,33.3
2018-03-14T00:38:56.049Z,32.9
2018-03-14T00:39:46.367Z,32.6
2018-03-14T00:40:38.529Z,32.4
2018-03-14T00:41:28.305Z,32.1
2018-03-14T00:42:17.497Z,31.8
2018-03-14T00:43:07.529Z,31.6
2018-03-14T00:44:02.195Z,31.4
2018-03-14T00:44:48.546Z,31.1
2018-03-14T00:45:38.014Z,31.2
2018-03-14T00:46:27.382Z,31.4
2018-03-14T00:47:20.204Z,32.4
2018-03-14T00:48:08.136Z,33.4
2018-03-14T00:48:59.062Z,34.3
2018-03-14T00:49:50.115Z,35.2
2018-03-14T00:50:38.587Z,35.9
2018-03-14T00:51:28.973Z,36.5
2018-03-14T00:52:19.564Z,36.8
2018-03-14T00:53:13.939Z,36.8
2018-03-14T00:54:00.011Z,36.6
2018-03-14T00:54:49.564Z,36.3
2018-03-14T00:55:39.788Z,36.1
2018-03-14T00:56:32.632Z,35.8
2018-03-14T00:57:19.975Z,35.4
2018-03-14T00:58:08.079Z,35.1
2018-03-14T00:58:58.074Z,34.8
2018-03-14T00:59:49.318Z,34.4
2018-03-14T01:00:37.759Z,34.1
2018-03-14T01:01:28.716Z,33.8
2018-03-14T01:02:21.025Z,33.5
2018-03-14T01:03:09.279Z,33.2
2018-03-14T01:03:59.602Z,32.9
2018-03-14T01:04:47.353Z,32.6
2018-03-14T01:05:38.266Z,32.3
2018-03-14T01:06:29.305Z,32.1
2018-03-14T01:07:17.879Z,31.8
2018-03-14T01:08:07.795Z,31.6
2018-03-14T01:08:58.056Z,31.3
2018-03-14T01:09:47.928Z,31.1
2018-03-14T01:10:39.557Z,31.3
2018-03-14T01:11:31.258Z,31.7
2018-03-14T01:12:17.819Z,32.7
2018-03-14T01:13:07.839Z,33.6
2018-03-14T01:13:58.607Z,34.5
2018-03-14T01:14:48.180Z,35.4
2018-03-14T01:15:39.384Z,36.1
2018-03-14T01:16:29.708Z,36.6
2018-03-14T01:17:19.776Z,36.8
2018-03-14T01:18:08.040Z,36.8
2018-03-14T01:18:59.664Z,36.6
2018-03-14T01:19:49.091Z,36.3
2018-03-14T01:20:38.588Z,36.1
2018-03-14T01:21:29.717Z,35.7
2018-03-14T01:22:19.416Z,35.4
2018-03-14T01:23:09.712Z,35
2018-03-14T01:23:59.552Z,34.7
2018-03-14T01:24:48.282Z,34.4
2018-03-14T01:25:39.494Z,34.1
2018-03-14T01:26:30.474Z,33.8
2018-03-14T01:27:19.809Z,33.4
2018-03-14T01:28:09.123Z,33.1
2018-03-14T01:28:59.599Z,32.8
2018-03-14T01:29:52.085Z,32.6
2018-03-14T01:30:40.175Z,32.3
2018-03-14T01:31:31.514Z,32
2018-03-14T01:32:21.388Z,31.8
2018-03-14T01:33:10.231Z,31.5
2018-03-14T01:34:00.529Z,31.3
2018-03-14T01:34:49.694Z,31.1
2018-03-14T01:35:43.003Z,31.2
2018-03-14T01:36:29.825Z,31.6
2018-03-14T01:37:19.003Z,32.5
2018-03-14T01:38:10.868Z,33.4
2018-03-14T01:39:02.270Z,34.4
2018-03-14T01:39:50.496Z,35.3
2018-03-14T01:40:40.840Z,36
2018-03-14T01:41:30.605Z,36.5
2018-03-14T01:42:21.156Z,36.8
2018-03-14T01:43:10.685Z,36.8
2018-03-14T01:44:01.107Z,36.6
2018-03-14T01:44:51.723Z,36.3
2018-03-14T01:45:41.533Z,36
2018-03-14T01:46:32.469Z,35.7
2018-03-14T01:47:21.835Z,35.4
2018-03-14T01:48:15.298Z,35.1
2018-03-14T01:49:00.640Z,34.7
2018-03-14T01:49:52.020Z,34.4
2018-03-14T01:50:41.218Z,34.1
2018-03-14T01:51:31.302Z,33.8
2018-03-14T01:52:21.712Z,33.4
2018-03-14T01:53:11.455Z,33.1
2018-03-14T01:54:03.094Z,32.8
2018-03-14T01:54:52.043Z,32.6
2018-03-14T01:55:41.140Z,32.3
2018-03-14T01:56:32.173Z,32.1
2018-03-14T01:57:22.772Z,31.8
2018-03-14T01:58:12.123Z,31.5
2018-03-14T01:59:02.953Z,31.3
2018-03-14T01:59:52.065Z,31.1
2018-03-14T02:00:43.183Z,31.3
2018-03-14T02:01:32.751Z,31.6
2018-03-14T02:02:21.555Z,32.6
2018-03-14T02:03:14.479Z,33.5
2018-03-14T02:04:02.660Z,34.5
2018-03-14T02:04:51.662Z,35.3
2018-03-14T02:05:41.889Z,36
2018-03-14T02:06:34.871Z,36.5
2018-03-14T02:07:23.037Z,36.8
2018-03-14T02:08:12.477Z,36.7
2018-03-14T02:09:01.373Z,36.5
2018-03-14T02:09:52.909Z,36.3
2018-03-14T02:10:43.099Z,35.9
2018-03-14T02:11:33.134Z,35.6
2018-03-14T02:12:26.072Z,35.3
2018-03-14T02:13:13.142Z,34.9
2018-03-14T02:14:02.721Z,34.6
2018-03-14T02:14:53.391Z,34.3
2018-03-14T02:15:44.519Z,34
2018-03-14T02:16:33.775Z,33.7
2018-03-14T02:17:23.527Z,33.4
2018-03-14T02:18:14.532Z,33.1
2018-03-14T02:19:03.636Z,32.8
2018-03-14T02:19:54.046Z,32.5
2018-03-14T02:20:43.963Z,32.3
2018-03-14T02:21:36.340Z,31.9
2018-03-14T02:22:23.569Z,31.7
2018-03-14T02:23:12.989Z,31.4
2018-03-14T02:24:03.948Z,31.3
2018-03-14T02:24:54.306Z,31.3
2018-03-14T02:25:45.334Z,31.4
2018-03-14T02:26:35.048Z,32.4
2018-03-14T02:27:27.818Z,33.3
2018-03-14T02:28:15.705Z,34.3
2018-03-14T02:29:05.148Z,35.2
2018-03-14T02:29:55.237Z,35.9
2018-03-14T02:30:51.305Z,36.5
2018-03-14T02:31:37.023Z,36.8
2018-03-14T02:32:26.510Z,36.8
2018-03-14T02:33:16.855Z,36.6
2018-03-14T02:34:07.490Z,36.4
2018-03-14T02:34:56.311Z,36.1
2018-03-14T02:35:47.368Z,35.8
2018-03-14T02:36:40.175Z,35.4
2018-03-14T02:37:27.180Z,35.1
2018-03-14T02:38:16.162Z,34.8
2018-03-14T02:39:07.305Z,34.4
2018-03-14T02:40:01.351Z,34.1
2018-03-14T02:40:47.435Z,33.8
2018-03-14T02:41:36.376Z,33.4
2018-03-14T02:42:24.783Z,33.2
2018-03-14T02:43:14.999Z,32.9
2018-03-14T02:44:04.561Z,32.6
2018-03-14T02:44:55.289Z,32.3
2018-03-14T02:45:45.137Z,32.1
2018-03-14T02:46:34.838Z,31.8
2018-03-14T02:47:25.380Z,31.6
2018-03-14T02:48:15.737Z,31.4
2018-03-14T02:49:04.995Z,31.1
2018-03-14T02:49:55.324Z,31.3
2018-03-14T02:50:46.007Z,31.7
2018-03-14T02:51:35.406Z,32.6
2018-03-14T02:52:26.978Z,33.6
2018-03-14T02:53:16.222Z,34.6
2018-03-14T02:54:05.737Z,35.4
2018-03-14T02:54:55.494Z,36.1
2018-03-14T02:55:46.536Z,36.6
2018-03-14T02:56:36.088Z,36.8
2018-03-14T02:57:27.493Z,36.8
2018-03-14T02:58:16.169Z,36.5
2018-03-14T02:59:07.044Z,36.3
2018-03-14T02:59:56.534Z,35.9
2018-03-14T03:00:47.016Z,35.7
2018-03-14T03:01:35.846Z,35.3
2018-03-14T03:02:25.836Z,35
2018-03-14T03:03:16.115Z,34.6
2018-03-14T03:04:06.936Z,34.3
2018-03-14T03:04:57.174Z,34
2018-03-14T03:05:47.086Z,33.7
2018-03-14T03:06:36.685Z,33.4
2018-03-14T03:07:27.351Z,33.1
2018-03-14T03:08:16.490Z,32.8
2018-03-14T03:09:07.468Z,32.5
2018-03-14T03:09:56.848Z,32.3
2018-03-14T03:10:47.152Z,32
2018-03-14T03:11:36.918Z,31.8
2018-03-14T03:12:26.888Z,31.5
2018-03-14T03:13:17.109Z,31.3
2018-03-14T03:14:07.816Z,31.2
2018-03-14T03:14:57.096Z,31.3
2018-03-14T03:15:47.785Z,32.3
2018-03-14T03:16:37.358Z,33.3
2018-03-14T03:17:28.657Z,34.2
2018-03-14T03:18:17.497Z,35.1
2018-03-14T03:19:07.418Z,35.8
2018-03-14T03:19:58.849Z,36.4
2018-03-14T03:20:49.520Z,36.8
2018-03-14T03:21:38.500Z,36.8
2018-03-14T03:22:27.593Z,36.6
2018-03-14T03:23:18.385Z,36.4
2018-03-14T03:24:08.187Z,36.1
2018-03-14T03:24:58.493Z,35.8
2018-03-14T03:25:48.448Z,35.5
2018-03-14T03:26:37.970Z,35.2
2018-03-14T03:27:27.860Z,34.8
2018-03-14T03:28:18.945Z,34.5
2018-03-14T03:29:08.177Z,34.1
2018-03-14T03:29:58.993Z,33.8
2018-03-14T03:30:49.509Z,33.5
2018-03-14T03:31:40.193Z,33.2
2018-03-14T03:32:28.944Z,32.9
2018-03-14T03:33:19.040Z,32.6
2018-03-14T03:34:09.762Z,32.4
2018-03-14T03:34:58.634Z,32.1
2018-03-14T03:35:49.597Z,31.8
2018-03-14T03:36:38.621Z,31.6
2018-03-14T03:37:29.395Z,31.3
2018-03-14T03:38:19.641Z,31.1
2018-03-14T03:39:09.158Z,30.9
2018-03-14T03:39:59.512Z,31.1
2018-03-14T03:40:49.658Z,31.8
2018-03-14T03:41:40.504Z,32.8
2018-03-14T03:42:30.543Z,33.8
2018-03-14T03:43:19.753Z,34.7
2018-03-14T03:44:09.718Z,35.6
2018-03-14T03:44:59.425Z,36.2
2018-03-14T03:45:49.628Z,36.6
2018-03-14T03:46:39.296Z,36.8
2018-03-14T03:47:29.566Z,36.7
2018-03-14T03:48:19.443Z,36.5
2018-03-14T03:49:09.946Z,36.2
2018-03-14T03:50:00.939Z,35.9
2018-03-14T03:50:51.242Z,35.6
2018-03-14T03:51:41.662Z,35.3
2018-03-14T03:52:30.227Z,34.9
2018-03-14T03:53:18.930Z,34.6
2018-03-14T03:54:10.048Z,34.3
2018-03-14T03:55:01.389Z,33.9
2018-03-14T03:55:50.658Z,33.6
2018-03-14T03:56:41.344Z,33.3
2018-03-14T03:57:30.073Z,32.9
2018-03-14T03:58:21.077Z,32.7
2018-03-14T03:59:10.922Z,32.4
2018-03-14T04:00:00.794Z,32.1
2018-03-14T04:00:51.986Z,31.9
2018-03-14T04:01:39.920Z,31.6
2018-03-14T04:02:31.132Z,31.4
2018-03-14T04:03:21.547Z,31.1
2018-03-14T04:04:12.115Z,30.9
2018-03-14T04:05:01.448Z,31.1
2018-03-14T04:05:51.934Z,31.8
2018-03-14T04:06:41.454Z,32.8
2018-03-14T04:07:32.076Z,33.8
2018-03-14T04:08:21.565Z,34.7
2018-03-14T04:09:11.792Z,35.5
2018-03-14T04:10:02.071Z,36.2
2018-03-14T04:10:51.441Z,36.6
2018-03-14T04:11:42.044Z,36.8
2018-03-14T04:12:30.847Z,36.8
2018-03-14T04:13:21.744Z,36.6
2018-03-14T04:14:12.274Z,36.3
2018-03-14T04:15:01.416Z,36
2018-03-14T04:15:52.393Z,35.8
2018-03-14T04:16:42.869Z,35.4
2018-03-14T04:17:31.650Z,35.1
2018-03-14T04:18:23.674Z,34.8
2018-03-14T04:19:14.009Z,34.4
2018-03-14T04:20:04.300Z,34.1
2018-03-14T04:20:53.784Z,33.8
2018-03-14T04:21:43.903Z,33.5
2018-03-14T04:22:34.178Z,33.2
2018-03-14T04:23:24.761Z,32.9
2018-03-14T04:24:14.841Z,32.6
2018-03-14T04:25:04.114Z,32.4
2018-03-14T04:25:54.353Z,32.1
2018-03-14T04:26:44.143Z,31.9
2018-03-14T04:27:34.808Z,31.6
2018-03-14T04:28:25.091Z,31.4
2018-03-14T04:29:14.629Z,31.1
2018-03-14T04:30:04.411Z,31.3
2018-03-14T04:30:54.165Z,31.4
2018-03-14T04:31:44.182Z,32.4
2018-03-14T04:32:34.429Z,33.3
2018-03-14T04:33:24.946Z,34.3
2018-03-14T04:34:14.975Z,35.2
2018-03-14T04:35:05.354Z,35.9
2018-03-14T04:35:54.581Z,36.5
2018-03-14T04:36:45.489Z,36.8
2018-03-14T04:37:35.029Z,36.8
2018-03-14T04:38:24.538Z,36.6
2018-03-14T04:39:15.368Z,36.4
2018-03-14T04:40:04.312Z,36.1
2018-03-14T04:40:54.955Z,35.8
2018-03-14T04:41:45.301Z,35.5
2018-03-14T04:42:35.855Z,35.1
2018-03-14T04:43:25.925Z,34.8
2018-03-14T04:44:15.137Z,34.5
2018-03-14T04:45:05.760Z,34.2
2018-03-14T04:45:55.855Z,33.8
2018-03-14T04:46:46.177Z,33.6
2018-03-14T04:47:36.538Z,33.3
2018-03-14T04:48:25.968Z,32.9
2018-03-14T04:49:14.842Z,32.6
2018-03-14T04:50:04.415Z,32.4
2018-03-14T04:50:53.810Z,32.1
2018-03-14T04:51:45.408Z,31.9
2018-03-14T04:52:35.595Z,31.6
2018-03-14T04:53:23.786Z,31.4
2018-03-14T04:54:15.227Z,31.2
2018-03-14T04:55:05.293Z,31.3
2018-03-14T04:55:55.097Z,31.8
2018-03-14T04:56:44.467Z,32.6
2018-03-14T04:57:34.510Z,33.6
2018-03-14T04:58:25.611Z,34.4
2018-03-14T04:59:15.059Z,35.3
2018-03-14T05:00:05.739Z,36.1
2018-03-14T05:00:55.459Z,36.6
2018-03-14T05:01:45.154Z,36.8
2018-03-14T05:02:35.122Z,36.8
2018-03-14T05:03:25.091Z,36.6
2018-03-14T05:04:15.663Z,36.4
2018-03-14T05:05:06.151Z,36.1
2018-03-14T05:05:55.639Z,35.8
2018-03-14T05:06:45.397Z,35.4
2018-03-14T05:07:35.205Z,35.1
2018-03-14T05:08:25.681Z,34.8
2018-03-14T05:09:15.754Z,34.4
2018-03-14T05:10:05.781Z,34.1
2018-03-14T05:10:56.657Z,33.8
2018-03-14T05:11:46.244Z,33.5
2018-03-14T05:12:36.451Z,33.2
2018-03-14T05:13:26.326Z,32.9
2018-03-14T05:14:16.671Z,32.6
2018-03-14T05:15:21.016Z,32.3
2018-03-14T05:15:56.529Z,32.1
2018-03-14T05:16:46.796Z,31.9
2018-03-14T05:17:36.538Z,31.6
2018-03-14T05:18:25.675Z,31.4
2018-03-14T05:19:17.296Z,31.1
2018-03-14T05:20:05.739Z,31.1
2018-03-14T05:20:56.015Z,31.2
2018-03-14T05:21:47.132Z,32.1
2018-03-14T05:22:36.070Z,33.1
2018-03-14T05:23:26.657Z,34.1
2018-03-14T05:24:16.127Z,34.9
2018-03-14T05:25:06.341Z,35.8
2018-03-14T05:25:57.418Z,36.4
2018-03-14T05:26:47.353Z,36.7
2018-03-14T05:27:36.056Z,36.8
2018-03-14T05:28:26.719Z,36.6
2018-03-14T05:29:17.176Z,36.4
2018-03-14T05:30:08.560Z,36.1
2018-03-14T05:30:57.630Z,35.8
2018-03-14T05:31:47.361Z,35.5
2018-03-14T05:32:36.923Z,35.2
2018-03-14T05:33:27.025Z,34.8
2018-03-14T05:34:16.637Z,34.5
2018-03-14T05:35:07.189Z,34.2
2018-03-14T05:35:56.847Z,33.9
2018-03-14T05:36:47.641Z,33.6
2018-03-14T05:37:38.546Z,33.3
2018-03-14T05:38:27.443Z,32.9
2018-03-14T05:39:17.996Z,32.7
2018-03-14T05:40:07.613Z,32.4
2018-03-14T05:40:58.446Z,32.1
2018-03-14T05:41:49.053Z,31.9
2018-03-14T05:42:37.890Z,31.7
2018-03-14T05:43:26.994Z,31.4
2018-03-14T05:44:18.175Z,31.2
2018-03-14T05:45:08.883Z,31.1
2018-03-14T05:45:58.506Z,31.3
2018-03-14T05:46:48.418Z,32.1
2018-03-14T05:47:37.937Z,33.1
2018-03-14T05:48:28.721Z,34.1
2018-03-14T05:49:18.489Z,34.9
2018-03-14T05:50:08.583Z,35.7
2018-03-14T05:50:58.610Z,36.3
2018-03-14T05:51:49.562Z,36.7
2018-03-14T05:52:37.828Z,36.8
2018-03-14T05:53:28.956Z,36.6
2018-03-14T05:54:19.646Z,36.4
2018-03-14T05:55:08.705Z,36.1
2018-03-14T05:55:58.840Z,35.9
2018-03-14T05:56:49.111Z,35.5
2018-03-14T05:57:39.748Z,35.2
2018-03-14T05:58:30.495Z,34.9
2018-03-14T05:59:19.987Z,34.6
2018-03-14T06:00:10.199Z,34.3
2018-03-14T06:00:59.027Z,33.9
2018-03-14T06:01:49.664Z,33.6
2018-03-14T06:02:40.627Z,33.3
2018-03-14T06:03:29.708Z,33
2018-03-14T06:04:20.395Z,32.8
2018-03-14T06:05:09.774Z,32.5
2018-03-14T06:05:59.310Z,32.2
2018-03-14T06:06:49.957Z,31.9
2018-03-14T06:07:40.742Z,31.8
2018-03-14T06:08:30.971Z,31.5
2018-03-14T06:09:19.457Z,31.3
2018-03-14T06:10:09.904Z,31.1
2018-03-14T06:10:59.023Z,31.1
2018-03-14T06:11:49.806Z,32
2018-03-14T06:12:40.461Z,32.9
2018-03-14T06:13:30.403Z,33.9
2018-03-14T06:14:20.726Z,34.8
2018-03-14T06:15:09.583Z,35.6
2018-03-14T06:15:59.099Z,36.3
2018-03-14T06:16:51.518Z,36.6
2018-03-14T06:17:41.696Z,36.8
2018-03-14T06:18:30.633Z,36.6
2018-03-14T06:19:20.696Z,36.4
2018-03-14T06:20:11.090Z,36.2
2018-03-14T06:21:00.623Z,35.9
2018-03-14T06:21:51.116Z,35.6
2018-03-14T06:22:40.253Z,35.3
2018-03-14T06:23:30.801Z,34.9
2018-03-14T06:24:21.051Z,34.6
2018-03-14T06:25:10.878Z,34.3
2018-03-14T06:26:01.104Z,33.9
2018-03-14T06:26:52.158Z,33.6
2018-03-14T06:27:42.899Z,33.3
2018-03-14T06:28:31.694Z,33
2018-03-14T06:29:21.553Z,32.8
2018-03-14T06:30:11.381Z,32.5
2018-03-14T06:31:02.418Z,32.2
2018-03-14T06:31:51.540Z,31.9
2018-03-14T06:32:42.305Z,31.7
2018-03-14T06:33:31.469Z,31.4
2018-03-14T06:34:21.098Z,31.3
2018-03-14T06:35:11.373Z,31.1
2018-03-14T06:36:02.000Z,31.1
2018-03-14T06:36:51.759Z,31.9
2018-03-14T06:37:42.052Z,32.9
2018-03-14T06:38:31.988Z,33.9
2018-03-14T06:39:23.125Z,34.8
2018-03-14T06:40:11.738Z,35.6
2018-03-14T06:41:03.522Z,36.3
2018-03-14T06:41:52.417Z,36.6
2018-03-14T06:42:41.190Z,36.8
2018-03-14T06:43:32.475Z,36.6
2018-03-14T06:44:22.468Z,36.4
2018-03-14T06:45:13.088Z,36.2
2018-03-14T06:46:02.499Z,35.9
2018-03-14T06:46:52.550Z,35.6
2018-03-14T06:47:42.960Z,35.3
2018-03-14T06:48:33.079Z,34.9
2018-03-14T06:49:22.960Z,34.6
2018-03-14T06:50:13.054Z,34.3
2018-03-14T06:51:03.202Z,33.9
2018-03-14T06:51:52.156Z,33.7
2018-03-14T06:52:41.067Z,33.4
2018-03-14T06:53:34.692Z,33.1
2018-03-14T06:54:23.744Z,32.8
2018-03-14T06:55:13.744Z,32.5
2018-03-14T06:56:03.212Z,32.3
2018-03-14T06:56:54.562Z,32
2018-03-14T06:57:43.957Z,31.8
2018-03-14T06:58:33.349Z,31.5
2018-03-14T06:59:23.025Z,31.3
2018-03-14T07:00:14.116Z,31.2
2018-03-14T07:01:04.512Z,31.3
2018-03-14T07:01:53.849Z,32.2
2018-03-14T07:02:43.336Z,33.1
2018-03-14T07:03:34.963Z,34.1
2018-03-14T07:04:24.328Z,35
2018-03-14T07:05:15.606Z,35.8
2018-03-14T07:06:06.184Z,36.4
2018-03-14T07:06:55.869Z,36.7
2018-03-14T07:07:46.285Z,36.7
2018-03-14T07:08:36.002Z,36.5
2018-03-14T07:09:25.791Z,36.3
2018-03-14T07:10:16.387Z,36
2018-03-14T07:11:06.202Z,35.8
2018-03-14T07:11:56.364Z,35.4
2018-03-14T07:12:46.331Z,35.1
2018-03-14T07:13:36.406Z,34.8
2018-03-14T07:14:26.430Z,34.4
2018-03-14T07:15:15.936Z,34.1
2018-03-14T07:16:06.529Z,33.8
2018-03-14T07:16:56.880Z,33.4
2018-03-14T07:17:46.115Z,33.2
2018-03-14T07:18:36.751Z,32.9
2018-03-14T07:19:26.608Z,32.6
2018-03-14T07:20:16.868Z,32.4
2018-03-14T07:21:06.470Z,32.1
2018-03-14T07:21:57.540Z,31.9
2018-03-14T07:22:47.302Z,31.6
2018-03-14T07:23:35.115Z,31.4
2018-03-14T07:24:26.907Z,31.1
2018-03-14T07:25:16.394Z,30.9
2018-03-14T07:26:07.848Z,30.7
2018-03-14T07:26:57.614Z,30.5
2018-03-14T07:27:47.172Z,30.7
2018-03-14T07:28:37.955Z,31.2
2018-03-14T07:29:27.486Z,32.3
2018-03-14T07:30:17.074Z,33.3
2018-03-14T07:31:08.154Z,34.3
2018-03-14T07:31:57.695Z,35.2
2018-03-14T07:32:48.292Z,35.9
2018-03-14T07:33:37.775Z,36.4
2018-03-14T07:34:28.174Z,36.6
2018-03-14T07:35:17.443Z,36.6
2018-03-14T07:36:08.227Z,36.4
2018-03-14T07:36:58.677Z,36.1
2018-03-14T07:37:47.786Z,35.9
2018-03-14T07:38:38.718Z,35.5
2018-03-14T07:39:27.282Z,35.2
2018-03-14T07:40:17.304Z,34.9
2018-03-14T07:41:06.176Z,34.5
2018-03-14T07:41:56.612Z,34.2
2018-03-14T07:42:47.186Z,33.9
2018-03-14T07:43:36.348Z,33.6
2018-03-14T07:44:27.779Z,33.3
2018-03-14T07:45:15.254Z,32.9
2018-03-14T07:46:07.676Z,32.6
2018-03-14T07:46:56.706Z,32.4
2018-03-14T07:47:47.253Z,32.1
2018-03-14T07:48:36.771Z,31.9
2018-03-14T07:49:27.105Z,31.6
2018-03-14T07:50:16.808Z,31.4
2018-03-14T07:51:07.556Z,31.1
2018-03-14T07:51:57.429Z,30.9
2018-03-14T07:52:47.533Z,30.7
2018-03-14T07:53:37.993Z,30.4
2018-03-14T07:54:27.893Z,30.3
2018-03-14T07:55:18.160Z,30.5
2018-03-14T07:56:06.827Z,31.3
2018-03-14T07:56:57.897Z,32.4
2018-03-14T07:57:47.052Z,33.5
2018-03-14T07:58:37.014Z,34.5
2018-03-14T07:59:28.596Z,35.4
2018-03-14T08:00:19.505Z,36.1
2018-03-14T08:01:08.189Z,36.4
2018-03-14T08:01:57.913Z,36.6
2018-03-14T08:02:48.183Z,36.4
2018-03-14T08:03:38.646Z,36.3
2018-03-14T08:04:28.670Z,36
2018-03-14T08:05:18.483Z,35.7
2018-03-14T08:06:08.596Z,35.4
2018-03-14T08:06:58.492Z,35
2018-03-14T08:07:47.978Z,34.6
2018-03-14T08:08:37.863Z,34.3
2018-03-14T08:09:28.093Z,34
2018-03-14T08:10:18.045Z,33.7
2018-03-14T08:11:08.421Z,33.4
2018-03-14T08:11:58.868Z,33.1
2018-03-14T08:12:49.084Z,32.8
2018-03-14T08:13:43.550Z,32.5
2018-03-14T08:14:30.423Z,32.2
2018-03-14T08:15:21.050Z,31.9
2018-03-14T08:16:11.380Z,31.7
2018-03-14T08:17:01.262Z,31.4
2018-03-14T08:17:51.236Z,31.3
2018-03-14T08:18:40.712Z,31
2018-03-14T08:19:31.088Z,30.8
2018-03-14T08:20:21.802Z,30.6
2018-03-14T08:21:11.748Z,30.4
2018-03-14T08:22:01.490Z,30.6
2018-03-14T08:22:50.978Z,31.3
2018-03-14T08:23:41.631Z,32.3
2018-03-14T08:24:30.915Z,33.4
2018-03-14T08:25:21.577Z,34.4
2018-03-14T08:26:11.719Z,35.3
2018-03-14T08:27:01.833Z,36.1
2018-03-14T08:27:52.300Z,36.5
2018-03-14T08:28:41.747Z,36.6
2018-03-14T08:29:32.099Z,36.6
2018-03-14T08:30:20.178Z,36.4
2018-03-14T08:31:12.436Z,36.1
2018-03-14T08:32:01.484Z,35.8
2018-03-14T08:32:52.022Z,35.5
2018-03-14T08:33:42.642Z,35.2
2018-03-14T08:34:31.314Z,34.9
2018-03-14T08:35:20.726Z,34.6
2018-03-14T08:36:12.799Z,34.2
2018-03-14T08:37:02.364Z,33.8
2018-03-14T08:37:52.931Z,33.5
2018-03-14T08:38:41.899Z,33.2
2018-03-14T08:39:32.025Z,32.9
2018-03-14T08:40:22.537Z,32.5
2018-03-14T08:41:11.771Z,32.2
2018-03-14T08:42:02.401Z,31.9
2018-03-14T08:42:52.446Z,31.6
2018-03-14T08:43:42.609Z,31.4
2018-03-14T08:44:33.450Z,31.1
2018-03-14T08:45:22.071Z,30.9
2018-03-14T08:46:13.544Z,30.6
2018-03-14T08:47:03.223Z,30.4
2018-03-14T08:47:52.540Z,30.2
2018-03-14T08:48:42.204Z,30.3
2018-03-14T08:49:33.565Z,30.6
2018-03-14T08:50:23.718Z,31.7
2018-03-14T08:51:12.924Z,32.8
2018-03-14T08:52:02.881Z,33.9
2018-03-14T08:52:53.735Z,34.8
2018-03-14T08:53:43.185Z,35.7
2018-03-14T08:54:33.966Z,36.3
2018-03-14T08:55:23.900Z,36.6
2018-03-14T08:56:13.705Z,36.6
2018-03-14T08:57:02.956Z,36.4
2018-03-14T08:57:53.588Z,36.2
2018-03-14T08:58:43.283Z,35.9
2018-03-14T08:59:34.020Z,35.6
2018-03-14T09:00:23.862Z,35.3
2018-03-14T09:01:13.335Z,34.9
2018-03-14T09:02:03.085Z,34.6
2018-03-14T09:02:53.663Z,34.3
2018-03-14T09:03:43.118Z,33.9
2018-03-14T09:04:33.200Z,33.6
2018-03-14T09:05:24.140Z,33.3
2018-03-14T09:06:14.440Z,33.1
2018-03-14T09:07:04.751Z,32.8
2018-03-14T09:07:54.265Z,32.4
2018-03-14T09:08:44.383Z,32.2
2018-03-14T09:09:34.709Z,31.9
2018-03-14T09:10:23.632Z,31.7
2018-03-14T09:11:14.625Z,31.4
2018-03-14T09:12:04.883Z,31.2
2018-03-14T09:12:54.625Z,30.9
2018-03-14T09:13:43.733Z,30.8
2018-03-14T09:14:33.184Z,30.6
2018-03-14T09:15:24.135Z,30.8
2018-03-14T09:16:12.199Z,31.3
2018-03-14T09:17:03.644Z,32.3
2018-03-14T09:17:53.405Z,33.4
2018-03-14T09:18:44.355Z,34.4
2018-03-14T09:19:33.037Z,35.3
2018-03-14T09:20:24.272Z,36
2018-03-14T09:21:15.050Z,36.4
2018-03-14T09:22:03.972Z,36.6
2018-03-14T09:22:53.662Z,36.5
2018-03-14T09:23:43.520Z,36.3
2018-03-14T09:24:34.733Z,36.1
2018-03-14T09:25:23.367Z,35.8
2018-03-14T09:26:14.182Z,35.4
2018-03-14T09:27:04.855Z,35.1
2018-03-14T09:27:54.694Z,34.8
2018-03-14T09:28:45.750Z,34.4
2018-03-14T09:29:35.469Z,34.1
2018-03-14T09:30:24.344Z,33.8
2018-03-14T09:31:13.674Z,33.5
2018-03-14T09:32:03.454Z,33.3
2018-03-14T09:32:53.384Z,32.9
2018-03-14T09:33:44.126Z,32.7
2018-03-14T09:34:36.043Z,32.4
2018-03-14T09:35:24.286Z,32.1
2018-03-14T09:36:14.946Z,31.9
2018-03-14T09:37:05.406Z,31.6
2018-03-14T09:37:56.013Z,31.4
2018-03-14T09:38:44.518Z,31.1
2018-03-14T09:39:34.466Z,30.9
2018-03-14T09:40:25.742Z,30.7
2018-03-14T09:41:15.900Z,30.5
2018-03-14T09:42:05.656Z,30.8
2018-03-14T09:42:55.798Z,31.2
2018-03-14T09:43:45.734Z,32.3
2018-03-14T09:44:35.691Z,33.4
2018-03-14T09:45:25.923Z,34.4
2018-03-14T09:46:16.175Z,35.3
2018-03-14T09:47:05.785Z,36
2018-03-14T09:47:57.125Z,36.4
2018-03-14T09:48:46.431Z,36.6
2018-03-14T09:49:36.453Z,36.6
2018-03-14T09:50:25.162Z,36.4
2018-03-14T09:51:15.890Z,36.1
2018-03-14T09:52:06.405Z,35.9
2018-03-14T09:52:55.822Z,35.6
2018-03-14T09:53:46.679Z,35.2
2018-03-14T09:54:35.335Z,34.9
2018-03-14T09:55:25.859Z,34.6
2018-03-14T09:56:17.424Z,34.3
2018-03-14T09:57:07.470Z,33.9
2018-03-14T09:57:55.697Z,33.6
2018-03-14T09:58:46.599Z,33.3
2018-03-14T09:59:36.327Z,33.1
2018-03-14T10:00:26.733Z,32.8
2018-03-14T10:01:17.427Z,32.5
2018-03-14T10:02:06.467Z,32.3
2018-03-14T10:02:56.647Z,31.9
2018-03-14T10:03:46.594Z,31.8
2018-03-14T10:04:36.861Z,31.5
2018-03-14T10:05:26.702Z,31.3
2018-03-14T10:06:18.871Z,31.1
2018-03-14T10:07:07.004Z,30.8
2018-03-14T10:07:57.756Z,30.6
2018-03-14T10:08:46.953Z,30.9
2018-03-14T10:09:37.399Z,31.4
2018-03-14T10:10:27.893Z,32.5
2018-03-14T10:11:17.517Z,33.6
2018-03-14T10:12:07.214Z,34.6
2018-03-14T10:12:57.278Z,35.5
2018-03-14T10:13:48.286Z,36.1
2018-03-14T10:14:38.563Z,36.5
2018-03-14T10:15:27.676Z,36.6
2018-03-14T10:16:17.484Z,36.4
2018-03-14T10:17:08.574Z,36.3
2018-03-14T10:17:57.948Z,35.9
2018-03-14T10:18:47.889Z,35.7
2018-03-14T10:19:38.045Z,35.3
2018-03-14T10:20:28.058Z,35.1
2018-03-14T10:21:18.078Z,34.8
2018-03-14T10:22:07.439Z,34.4
2018-03-14T10:22:58.017Z,34.1
2018-03-14T10:23:48.553Z,33.8
2018-03-14T10:24:38.491Z,33.4
2018-03-14T10:25:28.224Z,33.2
2018-03-14T10:26:18.823Z,32.9
2018-03-14T10:27:07.616Z,32.6
2018-03-14T10:27:58.727Z,32.4
2018-03-14T10:28:49.603Z,32.1
2018-03-14T10:29:39.630Z,31.9
2018-03-14T10:30:28.508Z,31.6
2018-03-14T10:31:19.609Z,31.4
2018-03-14T10:32:09.660Z,31.1
2018-03-14T10:32:59.987Z,30.9
2018-03-14T10:33:48.684Z,30.8
2018-03-14T10:34:38.552Z,30.7
2018-03-14T10:35:28.923Z,30.9
2018-03-14T10:36:19.174Z,31.9
2018-03-14T10:37:10.002Z,33.1
2018-03-14T10:37:59.375Z,34.2
2018-03-14T10:38:50.341Z,35.1
2018-03-14T10:39:39.069Z,35.9
2018-03-14T10:40:28.453Z,36.3
2018-03-14T10:41:21.170Z,36.6
2018-03-14T10:42:09.980Z,36.5
2018-03-14T10:42:59.432Z,36.3
2018-03-14T10:43:48.914Z,36.1
2018-03-14T10:44:40.472Z,35.8
2018-03-14T10:45:30.637Z,35.5
2018-03-14T10:46:19.550Z,35.2
2018-03-14T10:47:09.664Z,34.9
2018-03-14T10:48:00.565Z,34.6
2018-03-14T10:48:48.986Z,34.3
2018-03-14T10:49:39.542Z,33.9
2018-03-14T10:50:29.585Z,33.6
2018-03-14T10:51:19.980Z,33.3
2018-03-14T10:52:10.805Z,33.1
2018-03-14T10:53:01.724Z,32.8
2018-03-14T10:53:49.916Z,32.5
2018-03-14T10:54:42.148Z,32.3
2018-03-14T10:55:30.337Z,32
2018-03-14T10:56:21.184Z,31.8
2018-03-14T10:57:10.009Z,31.5
2018-03-14T10:58:00.640Z,31.3
2018-03-14T10:58:51.874Z,31.1
2018-03-14T10:59:42.014Z,30.8
2018-03-14T11:00:31.733Z,30.7
2018-03-14T11:01:21.275Z,30.5
2018-03-14T11:02:10.730Z,30.8
2018-03-14T11:03:00.768Z,31.4
2018-03-14T11:03:51.145Z,32.6
2018-03-14T11:04:41.950Z,33.7
2018-03-14T11:05:31.692Z,34.8
2018-03-14T11:06:21.153Z,35.6
2018-03-14T11:07:11.212Z,36.1
2018-03-14T11:08:01.789Z,36.4